Time;durP1;ratioP1;P1;durP2;ratioP2;P2;SDS_P1;SDS_P2;PMS_P1;PMS_P2;Temp;Humidity;BMP_temperature;BMP_pressure;BME280_temperature;BME280_humidity;BME280_pressure;Samples;Min_cycle;Max_cycle;Signal;HPM_P1;HPM_P2
2023/04/01 00:01:02;;;;;;;;;;;17.20;67.10;;;;;;5042876;28;818;-70
2023/04/01 00:03:27;;;;;;;;;;;17.20;67.20;;;;;;5048200;28;931;-70
2023/04/01 00:05:53;;;;;;;;;;;17.20;67.20;;;;;;5067851;28;1291;-70
2023/04/01 00:08:19;;;;;;;;;;;17.20;67.20;;;;;;5038843;28;812;-70
2023/04/01 00:10:45;;;;;;;;;;;17.20;67.20;;;;;;5043671;28;1902;-70
2023/04/01 00:13:10;;;;;;;;;;;17.20;67.20;;;;;;5042268;28;884;-70
2023/04/01 00:15:36;;;;;;;;;;;17.20;67.30;;;;;;5039300;28;1249;-70
2023/04/01 00:18:02;;;;;;;;;;;17.20;67.20;;;;;;5069153;28;832;-70
2023/04/01 00:20:27;;;;;;;;;;;17.20;67.20;;;;;;5072427;28;933;-70
2023/04/01 00:22:53;;;;;;;;;;;17.20;67.30;;;;;;5040004;28;1192;-70
2023/04/01 00:25:18;;;;;;;;;;;17.20;67.30;;;;;;5076577;28;1215;-70
2023/04/01 00:27:44;;;;;;;;;;;17.20;67.20;;;;;;5042639;28;775;-70
2023/04/01 00:30:09;;;;;;;;;;;17.20;67.30;;;;;;5040423;28;1902;-70
2023/04/01 00:32:35;;;;;;;;;;;17.20;67.30;;;;;;5073641;28;1569;-69
2023/04/01 00:35:01;;;;;;;;;;;17.20;67.30;;;;;;5038690;28;1436;-72
2023/04/01 00:37:29;;;;;;;;;;;17.20;67.30;;;;;;5043567;28;1400;-68
2023/04/01 00:39:54;;;;;;;;;;;17.20;67.30;;;;;;5041056;28;1296;-69
2023/04/01 00:42:20;;;;;;;;;;;17.20;67.30;;;;;;5044527;28;1275;-70
2023/04/01 00:44:47;;;;;;;;;;;17.20;67.40;;;;;;5041028;28;1407;-70
2023/04/01 00:47:12;;;;;;;;;;;17.20;67.40;;;;;;5039974;28;1210;-70
2023/04/01 00:49:42;;;;;;;;;;;17.20;67.40;;;;;;5041562;28;1953;-68
2023/04/01 00:52:08;;;;;;;;;;;17.20;67.40;;;;;;5041698;28;1484;-68
2023/04/01 00:54:33;;;;;;;;;;;17.20;67.40;;;;;;5037567;28;1392;-68
2023/04/01 00:57:02;;;;;;;;;;;17.20;67.40;;;;;;5041099;28;956;-67
2023/04/01 00:59:34;;;;;;;;;;;17.20;67.40;;;;;;5039251;28;999;-68
2023/04/01 01:02:00;;;;;;;;;;;17.20;67.40;;;;;;5041409;28;940;-68
2023/04/01 01:04:26;;;;;;;;;;;17.20;67.40;;;;;;5039044;28;1244;-67
2023/04/01 01:07:10;;;;;;;;;;;17.20;67.40;;;;;;5037125;28;894;-68
2023/04/01 01:09:39;;;;;;;;;;;17.20;67.50;;;;;;5036533;28;1993;-67
2023/04/01 01:12:06;;;;;;;;;;;17.20;67.50;;;;;;5037445;28;875;-67
2023/04/01 01:14:55;;;;;;;;;;;17.20;67.50;;;;;;5025317;28;1363;-68
2023/04/01 01:17:30;;;;;;;;;;;17.20;67.50;;;;;;5033887;28;1081;-67
2023/04/01 01:19:59;;;;;;;;;;;17.20;67.50;;;;;;5040910;28;943;-67
2023/04/01 01:22:36;;;;;;;;;;;17.20;67.50;;;;;;5040209;28;899;-68
2023/04/01 01:25:01;;;;;;;;;;;17.20;67.50;;;;;;5038789;28;1401;-67
2023/04/01 01:27:27;;;;;;;;;;;17.20;67.50;;;;;;5039481;28;1030;-67
2023/04/01 01:30:08;;;;;;;;;;;17.20;67.50;;;;;;5041410;28;1923;-67
2023/04/01 01:32:47;;;;;;;;;;;17.20;67.60;;;;;;5037902;28;1089;-67
2023/04/01 01:35:21;;;;;;;;;;;17.20;67.50;;;;;;5069360;28;1275;-67
2023/04/01 01:37:47;;;;;;;;;;;17.20;67.50;;;;;;5039055;28;966;-69
2023/04/01 01:40:13;;;;;;;;;;;17.20;67.60;;;;;;5069139;28;1230;-69
2023/04/01 01:42:39;;;;;;;;;;;17.20;67.60;;;;;;5045238;28;833;-69
2023/04/01 01:45:05;;;;;;;;;;;17.20;67.60;;;;;;5028970;28;1362;-71
2023/04/01 01:47:30;;;;;;;;;;;17.20;67.60;;;;;;5069624;28;905;-71
2023/04/01 01:49:56;;;;;;;;;;;17.20;67.60;;;;;;5040840;28;1969;-71
2023/04/01 01:52:22;;;;;;;;;;;17.20;67.60;;;;;;5034405;28;813;-70
2023/04/01 01:54:51;;;;;;;;;;;17.20;67.60;;;;;;5069806;28;1779;-71
2023/04/01 01:57:16;;;;;;;;;;;17.20;67.60;;;;;;5040469;28;871;-71
2023/04/01 01:59:42;;;;;;;;;;;17.20;67.60;;;;;;5038758;28;876;-71
2023/04/01 02:02:07;;;;;;;;;;;17.20;67.60;;;;;;5040281;28;877;-71
2023/04/01 02:04:34;;;;;;;;;;;17.20;67.60;;;;;;5070538;28;1275;-71
2023/04/01 02:07:01;;;;;;;;;;;17.10;67.60;;;;;;5039346;28;938;-70
2023/04/01 02:09:27;;;;;;;;;;;17.20;67.60;;;;;;5058055;28;1898;-69
2023/04/01 02:11:53;;;;;;;;;;;17.20;67.70;;;;;;5067056;28;824;-70
2023/04/01 02:14:22;;;;;;;;;;;17.10;67.60;;;;;;5067521;28;1340;-70
2023/04/01 02:17:01;;;;;;;;;;;17.10;67.60;;;;;;5036913;28;801;-68
2023/04/01 02:19:27;;;;;;;;;;;17.10;67.60;;;;;;5037005;28;955;-68
2023/04/01 02:21:55;;;;;;;;;;;17.20;67.70;;;;;;5035003;28;888;-68
2023/04/01 02:24:22;;;;;;;;;;;17.20;67.70;;;;;;5037859;28;1272;-68
2023/04/01 02:26:48;;;;;;;;;;;17.20;67.70;;;;;;5036753;28;824;-69
2023/04/01 02:29:14;;;;;;;;;;;17.10;67.60;;;;;;5042062;28;1967;-69
2023/04/01 02:31:39;;;;;;;;;;;17.20;67.70;;;;;;5040894;28;822;-69
2023/04/01 02:34:05;;;;;;;;;;;17.10;67.60;;;;;;5071632;28;1288;-70
2023/04/01 02:36:30;;;;;;;;;;;17.10;67.60;;;;;;5041963;28;904;-69
2023/04/01 02:38:56;;;;;;;;;;;17.20;67.70;;;;;;5050253;28;1523;-69
2023/04/01 02:41:21;;;;;;;;;;;17.20;67.70;;;;;;5049974;28;816;-69
2023/04/01 02:43:47;;;;;;;;;;;17.10;67.60;;;;;;5043535;28;809;-70
2023/04/01 02:46:12;;;;;;;;;;;17.20;67.70;;;;;;5040579;28;1334;-69
2023/04/01 02:48:38;;;;;;;;;;;17.20;67.70;;;;;;5042955;28;871;-69
2023/04/01 02:51:03;;;;;;;;;;;17.10;67.70;;;;;;5042271;28;1969;-69
2023/04/01 02:53:29;;;;;;;;;;;17.10;67.70;;;;;;5041970;28;926;-69
2023/04/01 02:55:54;;;;;;;;;;;17.10;67.70;;;;;;5039504;28;1231;-70
2023/04/01 02:58:20;;;;;;;;;;;17.10;67.80;;;;;;5041583;28;808;-68
2023/04/01 03:00:45;;;;;;;;;;;17.10;67.70;;;;;;5044540;28;840;-68
2023/04/01 03:03:12;;;;;;;;;;;17.10;67.70;;;;;;5031799;28;1219;-68
2023/04/01 03:05:38;;;;;;;;;;;17.20;68.50;;;;;;5040995;28;1272;-68
2023/04/01 03:08:03;;;;;;;;;;;17.10;67.70;;;;;;5040000;28;752;-68
2023/04/01 03:10:29;;;;;;;;;;;17.10;67.70;;;;;;5041768;28;1965;-68
2023/04/01 03:12:54;;;;;;;;;;;17.10;67.70;;;;;;5039805;28;806;-70
2023/04/01 03:15:20;;;;;;;;;;;17.10;67.70;;;;;;5040210;28;1235;-69
2023/04/01 03:17:46;;;;;;;;;;;17.10;67.70;;;;;;5042441;28;812;-69
2023/04/01 03:20:12;;;;;;;;;;;17.10;67.70;;;;;;5039119;28;889;-69
2023/04/01 03:22:37;;;;;;;;;;;17.10;67.70;;;;;;5072509;28;850;-69
2023/04/01 03:25:03;;;;;;;;;;;17.10;67.70;;;;;;5048327;28;1279;-68
2023/04/01 03:27:29;;;;;;;;;;;17.10;67.80;;;;;;5040371;28;875;-69
2023/04/01 03:29:54;;;;;;;;;;;17.10;67.80;;;;;;5038374;28;1906;-69
2023/04/01 03:32:20;;;;;;;;;;;17.10;67.70;;;;;;5037051;28;838;-68
2023/04/01 03:34:45;;;;;;;;;;;17.10;67.70;;;;;;5038838;28;2075;-70
2023/04/01 03:37:11;;;;;;;;;;;17.10;67.80;;;;;;5042479;28;1469;-70
2023/04/01 03:39:36;;;;;;;;;;;17.10;67.80;;;;;;5039412;28;839;-69
2023/04/01 03:42:02;;;;;;;;;;;17.10;67.80;;;;;;5038330;28;1341;-70
2023/04/01 03:44:30;;;;;;;;;;;17.10;67.80;;;;;;5039110;28;1292;-69
2023/04/01 03:46:56;;;;;;;;;;;17.10;67.80;;;;;;5040117;28;1109;-69
2023/04/01 03:49:21;;;;;;;;;;;17.10;67.80;;;;;;5038360;28;1930;-68
2023/04/01 03:51:47;;;;;;;;;;;17.10;67.80;;;;;;5040409;28;1058;-69
2023/04/01 03:54:12;;;;;;;;;;;17.10;67.80;;;;;;5046008;28;1267;-69
2023/04/01 03:56:38;;;;;;;;;;;17.10;67.80;;;;;;5041390;28;927;-69
2023/04/01 03:59:04;;;;;;;;;;;17.10;67.80;;;;;;5040945;28;1532;-69
2023/04/01 04:01:29;;;;;;;;;;;17.10;67.80;;;;;;5041009;28;856;-68
2023/04/01 04:03:55;;;;;;;;;;;17.10;67.80;;;;;;5041480;28;906;-68
2023/04/01 04:06:20;;;;;;;;;;;17.10;67.80;;;;;;5037758;28;1379;-68
2023/04/01 04:08:46;;;;;;;;;;;17.10;67.90;;;;;;5038395;28;1974;-69
2023/04/01 04:11:11;;;;;;;;;;;17.10;67.80;;;;;;5036138;28;876;-68
2023/04/01 04:13:37;;;;;;;;;;;17.10;67.70;;;;;;5038019;28;876;-69
2023/04/01 04:16:03;;;;;;;;;;;17.10;67.60;;;;;;5039715;28;1263;-69
2023/04/01 04:18:28;;;;;;;;;;;17.20;67.60;;;;;;5044603;28;888;-69
2023/04/01 04:20:54;;;;;;;;;;;17.20;67.50;;;;;;5071791;28;883;-69
2023/04/01 04:23:19;;;;;;;;;;;17.20;67.40;;;;;;5039333;28;844;-69
2023/04/01 04:25:55;;;;;;;;;;;17.20;67.30;;;;;;5037818;28;1205;-68
2023/04/01 04:28:20;;;;;;;;;;;17.30;67.20;;;;;;5041614;28;831;-67
2023/04/01 04:30:46;;;;;;;;;;;17.30;67.10;;;;;;5040771;28;1961;-68
2023/04/01 04:33:11;;;;;;;;;;;17.30;67.00;;;;;;5040582;28;1030;-67
2023/04/01 04:35:36;;;;;;;;;;;17.40;67.00;;;;;;5039786;28;1253;-67
2023/04/01 04:38:02;;;;;;;;;;;17.40;66.90;;;;;;5040986;28;1422;-67
2023/04/01 04:40:27;;;;;;;;;;;17.40;66.80;;;;;;5037300;28;915;-67
2023/04/01 04:42:53;;;;;;;;;;;17.40;66.70;;;;;;5037935;28;863;-67
2023/04/01 04:45:18;;;;;;;;;;;17.40;66.60;;;;;;5034753;28;1856;-69
2023/04/01 04:47:44;;;;;;;;;;;17.50;66.60;;;;;;5039105;28;1906;-69
2023/04/01 04:50:10;;;;;;;;;;;17.50;66.50;;;;;;5044316;28;1902;-69
2023/04/01 04:52:35;;;;;;;;;;;17.50;66.40;;;;;;5044152;28;1402;-69
2023/04/01 04:55:01;;;;;;;;;;;17.50;66.40;;;;;;5040105;28;1265;-70
2023/04/01 04:57:26;;;;;;;;;;;17.50;66.30;;;;;;5042058;28;900;-69
2023/04/01 04:59:51;;;;;;;;;;;17.50;66.30;;;;;;5041425;28;816;-68
2023/04/01 05:02:17;;;;;;;;;;;17.60;66.30;;;;;;5040803;28;907;-69
2023/04/01 05:04:42;;;;;;;;;;;17.60;66.30;;;;;;5036900;28;1242;-70
2023/04/01 05:07:08;;;;;;;;;;;17.60;66.20;;;;;;5038084;28;859;-70
2023/04/01 05:09:33;;;;;;;;;;;17.60;66.20;;;;;;5042471;28;1914;-69
2023/04/01 05:11:59;;;;;;;;;;;17.60;66.10;;;;;;5035813;28;820;-69
2023/04/01 05:14:24;;;;;;;;;;;17.60;66.10;;;;;;5040284;28;1334;-70
2023/04/01 05:16:50;;;;;;;;;;;17.60;66.10;;;;;;5037823;28;899;-70
2023/04/01 05:19:15;;;;;;;;;;;17.60;66.00;;;;;;5037413;28;940;-70
2023/04/01 05:21:41;;;;;;;;;;;17.60;66.00;;;;;;5047349;28;942;-69
2023/04/01 05:24:09;;;;;;;;;;;17.60;66.00;;;;;;5039385;28;1259;-70
2023/04/01 05:26:36;;;;;;;;;;;17.60;66.00;;;;;;5037749;28;864;-71
2023/04/01 05:29:02;;;;;;;;;;;17.60;65.90;;;;;;5046511;28;1902;-68
2023/04/01 05:31:28;;;;;;;;;;;17.60;65.90;;;;;;5038265;28;810;-71
2023/04/01 05:33:54;;;;;;;;;;;17.60;65.90;;;;;;5038168;28;796;-70
2023/04/01 05:36:19;;;;;;;;;;;17.60;65.90;;;;;;5041611;28;1230;-70
2023/04/01 05:38:48;;;;;;;;;;;17.60;66.70;;;;;;5038931;28;1429;-70
2023/04/01 05:41:13;;;;;;;;;;;17.60;65.90;;;;;;5037181;28;887;-70
2023/04/01 05:43:39;;;;;;;;;;;17.60;65.90;;;;;;5039126;28;875;-67
2023/04/01 05:46:04;;;;;;;;;;;17.60;65.90;;;;;;5038611;28;1296;-67
2023/04/01 05:48:30;;;;;;;;;;;17.60;66.00;;;;;;5038935;28;1325;-68
2023/04/01 05:50:55;;;;;;;;;;;17.60;66.00;;;;;;5070673;28;1921;-69
2023/04/01 05:53:22;;;;;;;;;;;17.60;66.00;;;;;;5039460;28;1538;-68
2023/04/01 05:55:47;;;;;;;;;;;17.60;66.00;;;;;;5035270;28;1268;-68
2023/04/01 05:58:12;;;;;;;;;;;17.60;66.00;;;;;;5037461;28;825;-69
2023/04/01 06:00:38;;;;;;;;;;;17.60;66.00;;;;;;5037199;28;869;-70
2023/04/01 06:03:03;;;;;;;;;;;17.60;66.00;;;;;;5047129;28;1277;-71
2023/04/01 06:05:29;;;;;;;;;;;17.60;66.10;;;;;;5041560;28;1278;-70
2023/04/01 06:07:57;;;;;;;;;;;17.60;66.10;;;;;;5074794;28;918;-70
2023/04/01 06:10:23;;;;;;;;;;;17.60;66.10;;;;;;5041964;28;1906;-68
2023/04/01 06:12:53;;;;;;;;;;;17.60;66.10;;;;;;5072164;28;840;-68
2023/04/01 06:15:19;;;;;;;;;;;17.60;66.10;;;;;;5046348;28;1222;-68
2023/04/01 06:17:50;;;;;;;;;;;17.60;66.20;;;;;;5039612;28;909;-70
2023/04/01 06:20:34;;;;;;;;;;;17.60;66.20;;;;;;5043801;28;986;-69
2023/04/01 06:23:09;;;;;;;;;;;17.60;66.20;;;;;;5040685;28;974;-69
2023/04/01 06:25:34;;;;;;;;;;;17.50;66.20;;;;;;5066757;28;1356;-69
2023/04/01 06:28:09;;;;;;;;;;;17.50;66.20;;;;;;5043075;28;911;-69
2023/04/01 06:30:40;;;;;;;;;;;17.50;66.20;;;;;;5041538;28;1902;-68
2023/04/01 06:33:28;;;;;;;;;;;17.50;66.30;;;;;;5049466;28;1299;-69
2023/04/01 06:36:00;;;;;;;;;;;17.50;66.30;;;;;;5039406;28;1342;-69
2023/04/01 06:38:25;;;;;;;;;;;17.50;66.30;;;;;;5038021;28;1370;-73
2023/04/01 06:41:00;;;;;;;;;;;17.50;66.80;;;;;;5040252;28;955;-71
2023/04/01 06:43:35;;;;;;;;;;;17.50;66.40;;;;;;5042541;28;840;-70
2023/04/01 06:46:04;;;;;;;;;;;17.50;66.40;;;;;;5039309;28;1310;-69
2023/04/01 06:48:29;;;;;;;;;;;17.50;66.40;;;;;;5038635;28;839;-69
2023/04/01 06:51:13;;;;;;;;;;;17.50;66.40;;;;;;5040906;28;1971;-68
2023/04/01 06:53:48;;;;;;;;;;;17.50;66.50;;;;;;5043434;28;816;-74
2023/04/01 06:56:18;;;;;;;;;;;17.50;66.50;;;;;;5037907;28;1251;-74
2023/04/01 06:58:46;;;;;;;;;;;17.50;66.50;;;;;;5040601;28;2156;-69
2023/04/01 07:01:16;;;;;;;;;;;17.50;66.60;;;;;;5045057;28;1248;-69
2023/04/01 07:03:53;;;;;;;;;;;17.50;66.60;;;;;;5073303;28;1511;-69
2023/04/01 07:06:25;;;;;;;;;;;17.40;66.50;;;;;;5072578;28;2102;-69
2023/04/01 07:08:50;;;;;;;;;;;17.40;66.50;;;;;;5040689;28;2239;-69
2023/04/01 07:11:26;;;;;;;;;;;17.40;66.50;;;;;;5042618;28;1492;-69
2023/04/01 07:14:13;;;;;;;;;;;17.40;66.60;;;;;;5047108;28;1341;-68
2023/04/01 07:16:47;;;;;;;;;;;17.40;66.60;;;;;;5038759;28;874;-68
2023/04/01 07:19:27;;;;;;;;;;;17.40;66.70;;;;;;5040401;28;817;-68
2023/04/01 07:21:54;;;;;;;;;;;17.40;66.70;;;;;;5047708;28;808;-68
2023/04/01 07:24:20;;;;;;;;;;;17.40;66.70;;;;;;5038100;28;1783;-69
2023/04/01 07:26:45;;;;;;;;;;;17.40;66.70;;;;;;5042228;28;891;-69
2023/04/01 07:29:11;;;;;;;;;;;17.40;66.70;;;;;;5041715;28;1894;-69
2023/04/01 07:31:54;;;;;;;;;;;17.40;66.80;;;;;;5071854;28;878;-69
2023/04/01 07:34:24;;;;;;;;;;;17.40;66.80;;;;;;5070751;28;1394;-69
2023/04/01 07:36:53;;;;;;;;;;;17.40;66.80;;;;;;5051340;28;1367;-69
2023/04/01 07:39:18;;;;;;;;;;;17.40;66.70;;;;;;5041703;28;1010;-69
2023/04/01 07:41:57;;;;;;;;;;;17.40;66.70;;;;;;5038282;28;1596;-69
2023/04/01 07:44:22;;;;;;;;;;;17.40;66.70;;;;;;5039573;28;1252;-69
2023/04/01 07:47:10;;;;;;;;;;;17.40;66.70;;;;;;5042755;28;896;-69
2023/04/01 07:49:39;;;;;;;;;;;17.50;66.70;;;;;;5070226;28;1898;-69
2023/04/01 07:52:09;;;;;;;;;;;17.50;66.60;;;;;;5037997;28;1745;-69
2023/04/01 07:54:43;;;;;;;;;;;17.50;66.50;;;;;;5072444;28;1265;-69
2023/04/01 07:57:11;;;;;;;;;;;17.50;66.50;;;;;;5039151;28;896;-70
2023/04/01 07:59:39;;;;;;;;;;;17.50;66.40;;;;;;5038147;28;986;-68
2023/04/01 08:02:11;;;;;;;;;;;17.50;66.40;;;;;;5037354;28;1378;-69
2023/04/01 08:04:42;;;;;;;;;;;17.50;66.40;;;;;;5054937;28;1272;-69
2023/04/01 08:07:15;;;;;;;;;;;17.50;66.30;;;;;;5073863;28;944;-69
2023/04/01 08:09:59;;;;;;;;;;;17.50;66.30;;;;;;5036492;28;1971;-69
2023/04/01 08:12:34;;;;;;;;;;;17.50;66.30;;;;;;5039053;28;828;-69
2023/04/01 08:15:10;;;;;;;;;;;17.50;66.20;;;;;;5036131;28;1274;-69
2023/04/01 08:17:45;;;;;;;;;;;17.60;66.30;;;;;;5040098;28;880;-70
2023/04/01 08:20:17;;;;;;;;;;;17.60;66.20;;;;;;5036706;28;1266;-69
2023/04/01 08:22:45;;;;;;;;;;;17.60;66.20;;;;;;5068633;28;943;-69
2023/04/01 08:25:15;;;;;;;;;;;17.60;66.20;;;;;;5039930;28;1264;-69
2023/04/01 08:27:42;;;;;;;;;;;17.60;66.10;;;;;;5041034;28;880;-69
2023/04/01 08:30:18;;;;;;;;;;;17.60;66.90;;;;;;5037962;28;1960;-69
2023/04/01 08:32:45;;;;;;;;;;;17.60;66.10;;;;;;5037425;28;1631;-68
2023/04/01 08:35:11;;;;;;;;;;;17.60;66.00;;;;;;5036305;28;1302;-69
2023/04/01 08:37:38;;;;;;;;;;;17.60;66.00;;;;;;5041142;28;1344;-68
2023/04/01 08:40:22;;;;;;;;;;;17.60;66.00;;;;;;5068088;28;1010;-69
2023/04/01 08:43:06;;;;;;;;;;;17.60;66.00;;;;;;5038030;28;863;-69
2023/04/01 08:45:44;;;;;;;;;;;17.60;66.00;;;;;;5035910;28;1343;-69
2023/04/01 08:48:16;;;;;;;;;;;17.60;66.00;;;;;;5025427;28;1202;-69
2023/04/01 08:51:04;;;;;;;;;;;17.60;65.90;;;;;;5039488;28;1910;-68
2023/04/01 08:53:49;;;;;;;;;;;17.60;65.90;;;;;;5045341;28;1119;-68
2023/04/01 08:56:22;;;;;;;;;;;17.70;65.90;;;;;;5037817;28;1267;-68
2023/04/01 08:58:50;;;;;;;;;;;17.70;66.00;;;;;;5037709;28;868;-69
2023/04/01 09:01:26;;;;;;;;;;;17.70;65.90;;;;;;5038846;28;1563;-68
2023/04/01 09:04:11;;;;;;;;;;;17.60;65.80;;;;;;5046846;28;878;-69
2023/04/01 09:06:39;;;;;;;;;;;17.70;65.80;;;;;;5040309;28;871;-69
2023/04/01 09:09:15;;;;;;;;;;;17.70;65.80;;;;;;5036112;28;1914;-69
2023/04/01 09:11:44;;;;;;;;;;;17.70;65.80;;;;;;5038426;28;1390;-68
2023/04/01 09:14:28;;;;;;;;;;;17.70;65.80;;;;;;5039684;28;1222;-69
2023/04/01 09:17:12;;;;;;;;;;;17.70;65.80;;;;;;5037853;28;967;-68
2023/04/01 09:19:46;;;;;;;;;;;17.70;65.80;;;;;;5040244;28;906;-68
2023/04/01 09:22:15;;;;;;;;;;;17.70;65.80;;;;;;5039007;28;1553;-68
2023/04/01 09:24:59;;;;;;;;;;;17.70;65.80;;;;;;5041551;28;1326;-69
2023/04/01 09:27:44;;;;;;;;;;;17.70;65.70;;;;;;5042783;28;1159;-69
2023/04/01 09:30:30;;;;;;;;;;;17.70;65.70;;;;;;5045823;28;1960;-68
2023/04/01 09:33:15;;;;;;;;;;;17.70;65.70;;;;;;5040210;28;912;-68
2023/04/01 09:35:50;;;;;;;;;;;17.70;65.80;;;;;;5039488;28;1618;-68
2023/04/01 09:38:23;;;;;;;;;;;17.70;65.80;;;;;;5041975;28;1108;-68
2023/04/01 09:41:07;;;;;;;;;;;17.70;65.80;;;;;;5044853;28;797;-69
2023/04/01 09:43:35;;;;;;;;;;;17.70;65.80;;;;;;5041943;28;830;-69
2023/04/01 09:46:17;;;;;;;;;;;17.70;65.80;;;;;;5043857;28;1360;-69
2023/04/01 09:48:46;;;;;;;;;;;17.70;65.90;;;;;;5046579;28;816;-69
2023/04/01 09:51:26;;;;;;;;;;;17.70;65.80;;;;;;5045955;28;1970;-68
2023/04/01 09:53:54;;;;;;;;;;;17.70;65.80;;;;;;5045472;28;856;-68
2023/04/01 09:56:22;;;;;;;;;;;17.60;65.80;;;;;;5042577;28;1855;-68
2023/04/01 09:59:00;;;;;;;;;;;17.70;65.90;;;;;;5047284;28;1726;-68
2023/04/01 10:01:43;;;;;;;;;;;17.60;65.90;;;;;;5044673;28;1973;-68
2023/04/01 10:04:24;;;;;;;;;;;17.60;65.90;;;;;;5047519;28;2037;-68
2023/04/01 10:06:52;;;;;;;;;;;17.60;65.90;;;;;;5046115;28;1424;-69
2023/04/01 10:09:21;;;;;;;;;;;17.60;65.90;;;;;;5045660;28;1930;-69
2023/04/01 10:11:56;;;;;;;;;;;17.60;66.00;;;;;;5046085;28;1896;-69
2023/04/01 10:14:24;;;;;;;;;;;17.60;66.00;;;;;;5073273;28;1347;-68
2023/04/01 10:17:05;;;;;;;;;;;17.60;66.80;;;;;;5077106;28;1266;-68
2023/04/01 10:19:57;;;;;;;;;;;17.60;66.00;;;;;;5044605;28;1054;-68
2023/04/01 10:22:41;;;;;;;;;;;17.60;66.00;;;;;;5042834;28;1217;-68
2023/04/01 10:25:22;;;;;;;;;;;17.60;66.80;;;;;;5041543;28;1537;-69
2023/04/01 10:27:50;;;;;;;;;;;17.60;66.10;;;;;;5043314;28;987;-68
2023/04/01 10:30:27;;;;;;;;;;;17.60;66.10;;;;;;5052194;28;1947;-68
2023/04/01 10:33:01;;;;;;;;;;;17.60;66.10;;;;;;5042808;28;831;-68
2023/04/01 10:35:46;;;;;;;;;;;17.60;66.10;;;;;;5046929;28;1264;-68
2023/04/01 10:38:17;;;;;;;;;;;17.60;66.20;;;;;;5046488;28;1450;-69
2023/04/01 10:40:43;;;;;;;;;;;17.60;66.20;;;;;;5042500;28;1162;-68
2023/04/01 10:43:08;;;;;;;;;;;17.60;66.20;;;;;;5042913;28;915;-68
2023/04/01 10:45:53;;;;;;;;;;;17.60;66.20;;;;;;5044944;28;1394;-67
2023/04/01 10:48:21;;;;;;;;;;;17.60;66.20;;;;;;5042526;28;956;-68
2023/04/01 10:51:16;;;;;;;;;;;17.60;66.20;;;;;;5039305;28;1965;-68
2023/04/01 10:54:00;;;;;;;;;;;17.60;66.30;;;;;;5013741;28;1154;-68
2023/04/01 10:56:31;;;;;;;;;;;17.50;66.20;;;;;;5040074;28;1248;-68
2023/04/01 10:59:15;;;;;;;;;;;17.60;66.30;;;;;;5044956;28;1424;-68
2023/04/01 11:02:00;;;;;;;;;;;17.50;66.20;;;;;;5042520;28;851;-68
2023/04/01 11:04:46;;;;;;;;;;;17.60;66.30;;;;;;5042288;28;1296;-68
2023/04/01 11:07:15;;;;;;;;;;;17.60;66.40;;;;;;5036775;28;876;-69
2023/04/01 11:09:59;;;;;;;;;;;17.60;66.30;;;;;;5047282;28;1893;-69
2023/04/01 11:12:43;;;;;;;;;;;17.60;66.30;;;;;;5041059;28;1423;-69
2023/04/01 11:15:14;;;;;;;;;;;17.60;66.30;;;;;;5041167;28;2236;-70
2023/04/01 11:17:49;;;;;;;;;;;17.60;66.30;;;;;;5039848;28;1365;-69
2023/04/01 11:20:43;;;;;;;;;;;17.60;66.30;;;;;;5045398;28;1220;-68
2023/04/01 11:23:11;;;;;;;;;;;17.60;66.20;;;;;;5043100;28;1447;-69
2023/04/01 11:25:56;;;;;;;;;;;17.60;66.20;;;;;;5039024;28;1262;-68
2023/04/01 11:28:21;;;;;;;;;;;17.60;66.20;;;;;;5041927;28;857;-68
2023/04/01 11:30:59;;;;;;;;;;;17.60;66.20;;;;;;5042955;28;1921;-68
2023/04/01 11:33:44;;;;;;;;;;;17.60;66.20;;;;;;5039755;28;805;-68
2023/04/01 11:36:10;;;;;;;;;;;17.60;66.20;;;;;;5040540;28;1243;-68
2023/04/01 11:38:41;;;;;;;;;;;17.60;66.20;;;;;;5039707;28;1362;-68
2023/04/01 11:41:26;;;;;;;;;;;17.60;66.20;;;;;;5041241;28;813;-68
2023/04/01 11:43:54;;;;;;;;;;;17.60;66.20;;;;;;5044093;28;1171;-68
2023/04/01 11:46:26;;;;;;;;;;;17.60;66.30;;;;;;5036907;28;1188;-69
2023/04/01 11:48:54;;;;;;;;;;;17.60;66.30;;;;;;5040614;28;834;-69
2023/04/01 11:51:22;;;;;;;;;;;17.50;66.20;;;;;;5036348;28;1936;-69
2023/04/01 11:53:51;;;;;;;;;;;17.60;66.30;;;;;;5037413;28;1034;-68
2023/04/01 11:56:25;;;;;;;;;;;17.60;66.30;;;;;;5039440;28;1209;-68
2023/04/01 11:58:58;;;;;;;;;;;17.50;66.20;;;;;;5039187;28;804;-69
2023/04/01 12:01:33;;;;;;;;;;;17.60;66.20;;;;;;5038838;28;1628;-69
2023/04/01 12:04:08;;;;;;;;;;;17.60;66.20;;;;;;5048251;28;844;-68
2023/04/01 12:06:33;;;;;;;;;;;17.60;66.10;;;;;;5039924;28;1038;-68
2023/04/01 12:09:22;;;;;;;;;;;17.60;66.10;;;;;;5040062;28;761;-70
2023/04/01 12:11:53;;;;;;;;;;;17.60;66.10;;;;;;5042217;28;1122;-68
2023/04/01 12:14:19;;;;;;;;;;;17.60;66.10;;;;;;5038273;28;1339;-68
2023/04/01 12:16:50;;;;;;;;;;;17.60;66.00;;;;;;5041765;28;820;-68
2023/04/01 12:19:34;;;;;;;;;;;17.60;66.00;;;;;;5039848;28;821;-68
2023/04/01 12:22:06;;;;;;;;;;;17.70;66.00;;;;;;5038372;28;960;-69
2023/04/01 12:24:34;;;;;;;;;;;17.60;65.90;;;;;;5038970;28;1280;-68
2023/04/01 12:27:02;;;;;;;;;;;17.70;65.90;;;;;;5038624;28;864;-68
2023/04/01 12:29:36;;;;;;;;;;;17.70;65.80;;;;;;5039875;28;1898;-69
2023/04/01 12:32:20;;;;;;;;;;;17.70;65.80;;;;;;5038521;28;860;-68
2023/04/01 12:34:58;;;;;;;;;;;17.70;65.80;;;;;;5039994;28;1337;-69
2023/04/01 12:37:23;;;;;;;;;;;17.70;65.80;;;;;;5041215;28;1352;-68
2023/04/01 12:40:07;;;;;;;;;;;17.70;66.50;;;;;;5039333;28;1136;-69
2023/04/01 12:42:36;;;;;;;;;;;17.70;65.80;;;;;;5040362;28;1359;-70
2023/04/01 12:45:07;;;;;;;;;;;17.70;65.80;;;;;;5036836;28;1789;-70
2023/04/01 12:47:38;;;;;;;;;;;17.70;65.80;;;;;;5041827;28;1515;-73
2023/04/01 12:50:22;;;;;;;;;;;17.70;65.80;;;;;;5037905;28;1914;-70
2023/04/01 12:52:47;;;;;;;;;;;17.70;65.80;;;;;;5050596;28;845;-70
2023/04/01 12:55:29;;;;;;;;;;;17.70;65.80;;;;;;5039444;28;1286;-71
2023/04/01 12:58:21;;;;;;;;;;;17.70;65.80;;;;;;5037659;28;820;-70
2023/04/01 13:01:02;;;;;;;;;;;17.70;65.90;;;;;;5036463;28;1181;-68
2023/04/01 13:03:42;;;;;;;;;;;17.70;65.90;;;;;;5038715;28;776;-70
2023/04/01 13:06:08;;;;;;;;;;;17.70;65.90;;;;;;5036335;28;1345;-70
2023/04/01 13:08:33;;;;;;;;;;;17.70;66.00;;;;;;5037369;28;883;-69
2023/04/01 13:11:25;;;;;;;;;;;17.70;66.00;;;;;;5037757;28;1918;-68
2023/04/01 13:14:04;;;;;;;;;;;17.70;66.00;;;;;;5039332;28;1610;-68
2023/04/01 13:16:31;;;;;;;;;;;17.60;66.00;;;;;;5038027;28;1054;-67
2023/04/01 13:19:15;;;;;;;;;;;17.60;66.00;;;;;;5037748;28;820;-68
2023/04/01 13:21:40;;;;;;;;;;;17.60;66.10;;;;;;5039582;28;1843;-71
2023/04/01 13:24:09;;;;;;;;;;;17.60;66.00;;;;;;5037820;28;1253;-71
2023/04/01 13:26:37;;;;;;;;;;;17.60;66.10;;;;;;5043904;28;1709;-71
2023/04/01 13:29:03;;;;;;;;;;;17.60;66.10;;;;;;5071298;28;916;-71
2023/04/01 13:31:46;;;;;;;;;;;17.60;66.10;;;;;;5039030;28;1918;-71
2023/04/01 13:34:15;;;;;;;;;;;17.60;66.10;;;;;;5039823;28;1325;-71
2023/04/01 13:36:41;;;;;;;;;;;17.60;66.20;;;;;;5070491;28;1355;-71
2023/04/01 13:39:20;;;;;;;;;;;17.60;66.20;;;;;;5037130;28;804;-71
2023/04/01 13:41:50;;;;;;;;;;;17.60;66.20;;;;;;5046007;28;775;-70
2023/04/01 13:44:34;;;;;;;;;;;17.60;66.30;;;;;;5066606;28;1298;-71
2023/04/01 13:47:02;;;;;;;;;;;17.60;66.30;;;;;;5038096;28;792;-71
2023/04/01 13:49:37;;;;;;;;;;;17.60;66.30;;;;;;5039931;28;1902;-71
2023/04/01 13:52:02;;;;;;;;;;;17.60;66.40;;;;;;5038837;28;871;-71
2023/04/01 13:54:36;;;;;;;;;;;17.50;66.30;;;;;;5034799;28;1280;-71
2023/04/01 13:57:14;;;;;;;;;;;17.50;66.30;;;;;;5038892;28;1294;-70
2023/04/01 13:59:40;;;;;;;;;;;17.50;66.30;;;;;;5040037;28;902;-70
2023/04/01 14:02:17;;;;;;;;;;;17.50;66.40;;;;;;5034977;28;1586;-67
2023/04/01 14:04:43;;;;;;;;;;;17.50;66.40;;;;;;5038399;28;1381;-67
2023/04/01 14:07:12;;;;;;;;;;;17.50;66.40;;;;;;5041405;28;1488;-67
2023/04/01 14:09:51;;;;;;;;;;;17.50;66.40;;;;;;5034930;28;1992;-67
2023/04/01 14:12:25;;;;;;;;;;;17.50;66.50;;;;;;5038167;28;1082;-68
2023/04/01 14:14:54;;;;;;;;;;;17.50;66.50;;;;;;5038246;28;1374;-67
2023/04/01 14:17:22;;;;;;;;;;;17.50;66.50;;;;;;5038362;28;926;-67
2023/04/01 14:20:06;;;;;;;;;;;17.50;66.60;;;;;;5038357;28;975;-67
2023/04/01 14:22:50;;;;;;;;;;;17.50;66.50;;;;;;5039663;28;1124;-67
2023/04/01 14:25:34;;;;;;;;;;;17.50;66.60;;;;;;5041172;28;1255;-68
2023/04/01 14:28:03;;;;;;;;;;;17.50;66.60;;;;;;5042393;28;824;-68
2023/04/01 14:30:51;;;;;;;;;;;17.50;66.70;;;;;;5041934;28;1867;-68
2023/04/01 14:33:30;;;;;;;;;;;17.50;66.70;;;;;;5039152;28;1122;-68
2023/04/01 14:36:16;;;;;;;;;;;17.50;66.70;;;;;;5048937;28;1252;-71
2023/04/01 14:38:54;;;;;;;;;;;17.50;66.70;;;;;;5075879;28;1386;-69
2023/04/01 14:41:26;;;;;;;;;;;17.50;66.70;;;;;;5043266;28;836;-70
2023/04/01 14:43:51;;;;;;;;;;;17.50;66.70;;;;;;5037072;28;880;-71
2023/04/01 14:46:17;;;;;;;;;;;17.50;66.70;;;;;;5042278;28;1241;-70
2023/04/01 14:48:52;;;;;;;;;;;17.40;66.70;;;;;;5040930;28;991;-71
2023/04/01 14:51:23;;;;;;;;;;;17.50;66.80;;;;;;5041156;28;2177;-70
2023/04/01 14:54:05;;;;;;;;;;;17.40;66.70;;;;;;5043398;28;1459;-71
2023/04/01 14:56:41;;;;;;;;;;;17.50;66.80;;;;;;5074766;28;911;-70
2023/04/01 14:59:08;;;;;;;;;;;17.50;66.80;;;;;;5039100;28;1349;-69